RKPC/CJU METAR and TAF weather

Enter ICAO airport designator
Station Type Date Time Source
RKPC METAR 2020/04/04 05:00 UTC NOAA

RKPC 040500Z 28010KT 250V320 6000 NSC 14/08 Q1021 NOSIG


Station Type Date Time Source
RKPC Decoded METAR 2020/04/04 05:00 UTC NOAA

Cheju International Airport, Korea, South (RKPC) 33-30N 126-30E 28M
Apr 04, 2020 - 01:00 AM EDT / 2020.04.04 0500 UTC
Wind: from the W (280 degrees) at 12 MPH (10 KT) (direction variable):0
Visibility: 3 mile(s):0
Temperature: 57 F (14 C)
Dew Point: 46 F (8 C)
Relative Humidity: 67%
Pressure (altimeter): 30.15 in. Hg (1021 hPa)
ob: RKPC 040500Z 28010KT 250V320 6000 NSC 14/08 Q1021 NOSIG
cycle: 5

Station Type Date Time Source
RKPC TAF 2020/04/04 06:33 UTC NOAA

TAF TAF RKPC 040500Z 0406/0512 30011KT 6000 NSC TN06/0421Z TX10/0505Z
BECMG 0408/0409 32015G25KT CAVOK
BECMG 0413/0414 36008KT
BECMG 0503/0504 33015G25KT
BECMG 0506/0507 32008KT

Example: see airport list